Time;durP1;ratioP1;P1;durP2;ratioP2;P2;SDS_P1;SDS_P2;PMS_P1;PMS_P2;Temp;Humidity;BMP_temperature;BMP_pressure;BME280_temperature;BME280_humidity;BME280_pressure;Samples;Min_cycle;Max_cycle;Signal;HPM_P1;HPM_P2
2022/06/03 00:01:55;;;;;;;3.23;3.00;;;18.60;99.90;;;;;;5012742;28;20278;-50
2022/06/03 00:04:48;;;;;;;3.10;2.90;;;18.50;99.90;;;;;;5012581;28;20210;-52
2022/06/03 00:07:37;;;;;;;3.50;3.20;;;18.50;99.90;;;;;;5013346;28;20187;-50
2022/06/03 00:10:24;;;;;;;2.83;2.60;;;18.40;99.90;;;;;;5013091;28;20176;-49
2022/06/03 00:13:08;;;;;;;3.27;3.07;;;18.40;99.90;;;;;;5012695;28;20164;-49
2022/06/03 00:15:41;;;;;;;3.50;3.20;;;18.40;99.90;;;;;;5012657;28;20173;-52
2022/06/03 00:18:17;;;;;;;3.00;2.80;;;18.30;99.90;;;;;;5012962;28;20177;-49
2022/06/03 00:21:02;;;;;;;3.80;3.10;;;18.30;99.90;;;;;;5012454;28;20246;-52
2022/06/03 00:23:43;;;;;;;3.27;2.90;;;18.20;99.90;;;;;;5012551;28;20243;-49
2022/06/03 00:26:17;;;;;;;3.20;2.97;;;18.20;99.90;;;;;;5012754;28;20174;-50
2022/06/03 00:29:10;;;;;;;3.30;3.00;;;18.20;99.90;;;;;;5012675;28;20154;-47
2022/06/03 00:32:01;;;;;;;3.30;3.00;;;18.20;99.90;;;;;;5012603;28;20543;-49
2022/06/03 00:34:32;;;;;;;3.30;3.00;;;18.10;99.90;;;;;;5012553;28;20541;-49
2022/06/03 00:37:16;;;;;;;4.00;3.17;;;18.10;99.90;;;;;;5019633;28;20186;-50
2022/06/03 00:40:10;;;;;;;3.57;3.27;;;18.10;99.90;;;;;;5032005;28;20194;-51
2022/06/03 00:43:09;;;;;;;3.40;3.10;;;18.10;99.90;;;;;;5032265;28;20233;-50
2022/06/03 00:45:37;;;;;;;3.73;3.07;;;18.00;99.90;;;;;;5031861;28;20169;-50
2022/06/03 00:48:29;;;;;;;3.10;2.90;;;18.00;99.90;;;;;;5032079;28;20536;-49
2022/06/03 00:51:00;;;;;;;3.43;3.13;;;17.90;99.90;;;;;;5031928;28;20174;-49
2022/06/03 00:53:31;;;;;;;3.20;2.90;;;17.90;99.90;;;;;;5031727;28;20699;-50
2022/06/03 00:56:23;;;;;;;4.10;3.00;;;17.90;99.90;;;;;;5031949;28;20659;-47
2022/06/03 00:58:51;;;;;;;4.60;2.97;;;17.90;99.90;;;;;;5031705;28;20209;-47
2022/06/03 01:01:45;;;;;;;3.00;2.80;;;17.90;99.90;;;;;;5031760;28;20176;-50
2022/06/03 01:04:32;;;;;;;3.03;2.73;;;17.90;99.90;;;;;;5031389;28;20205;-49
2022/06/03 01:07:30;;;;;;;3.07;2.83;;;17.80;99.90;;;;;;5031719;28;20172;-52
2022/06/03 01:10:19;;;;;;;3.30;3.00;;;17.80;99.90;;;;;;5031597;28;20182;-50
2022/06/03 01:13:04;;;;;;;3.30;3.00;;;17.80;99.90;;;;;;5031605;28;20686;-47
2022/06/03 01:15:59;;;;;;;3.30;3.00;;;17.70;99.90;;;;;;5031337;28;20193;-48
2022/06/03 01:18:40;;;;;;;3.23;2.90;;;17.70;99.90;;;;;;5031538;28;20195;-51
2022/06/03 01:21:18;;;;;;;3.43;3.17;;;17.60;99.90;;;;;;5031394;28;20203;-50
2022/06/03 01:24:11;;;;;;;3.23;2.93;;;17.60;99.90;;;;;;5031115;28;20622;-50
2022/06/03 01:27:22;;;;;;;3.03;2.73;;;17.60;99.90;;;;;;5031490;28;20233;-47
2022/06/03 01:30:06;;;;;;;3.13;2.93;;;17.50;99.90;;;;;;5031346;28;20164;-50
2022/06/03 01:32:57;;;;;;;2.77;2.57;;;17.50;99.90;;;;;;5030491;28;20199;-48
2022/06/03 01:35:31;;;;;;;2.90;2.70;;;17.50;99.90;;;;;;5031142;28;20643;-47
2022/06/03 01:38:19;;;;;;;3.40;3.10;;;17.50;99.90;;;;;;5031280;28;20182;-48
2022/06/03 01:41:19;;;;;;;2.87;2.67;;;17.50;99.90;;;;;;5031110;28;20540;-51
2022/06/03 01:44:03;;;;;;;3.03;2.83;;;17.40;99.90;;;;;;5030911;28;20192;-50
2022/06/03 01:46:30;;;;;;;3.70;2.90;;;17.20;99.90;;;;;;5031156;28;20186;-50
2022/06/03 01:49:09;;;;;;;3.93;2.90;;;17.30;99.90;;;;;;5031153;28;20175;-47
2022/06/03 01:51:41;;;;;;;3.10;2.90;;;17.30;99.90;;;;;;5031150;28;20615;-47
2022/06/03 01:54:42;;;;;;;3.30;3.00;;;13.40;99.90;;;;;;5030828;28;20568;-49
2022/06/03 01:57:22;;;;;;;3.13;2.93;;;16.70;99.90;;;;;;5031081;28;20160;-48
2022/06/03 02:00:12;;;;;;;3.57;3.10;;;17.30;99.90;;;;;;5030946;28;20199;-49
2022/06/03 02:02:46;;;;;;;3.40;3.17;;;17.30;99.90;;;;;;5013299;28;20617;-51
2022/06/03 02:05:14;;;;;;;3.13;2.83;;;16.90;99.90;;;;;;5037581;22;20232;-56
2022/06/03 02:07:49;;;;;;;3.17;2.97;;;17.10;99.90;;;;;;5001194;28;20172;-52
2022/06/03 02:10:33;;;;;;;3.03;2.80;;;17.10;99.90;;;;;;5007961;28;20187;-54
2022/06/03 02:13:32;;;;;;;3.00;2.80;;;17.00;99.90;;;;;;5012019;28;20527;-51
2022/06/03 02:16:25;;;;;;;3.03;2.73;;;16.90;99.90;;;;;;5007983;28;20196;-51
2022/06/03 02:18:50;;;;;;;3.10;2.90;;;16.90;99.90;;;;;;5012419;28;20204;-56
2022/06/03 02:21:52;;;;;;;4.17;3.10;;;16.90;99.90;;;;;;5012743;28;20669;-54
2022/06/03 02:24:48;;;;;;;3.20;2.80;;;16.80;99.90;;;;;;4969046;28;20208;-52
2022/06/03 02:27:19;;;;;;;3.33;3.00;;;16.80;99.90;;;;;;4971181;28;20256;-52
2022/06/03 02:30:24;;;;;;;3.10;2.90;;;16.80;99.90;;;;;;4970780;28;20190;-55
2022/06/03 02:33:01;;;;;;;3.50;3.20;;;16.80;99.90;;;;;;4971211;28;20269;-55
2022/06/03 02:35:35;;;;;;;5.13;3.20;;;16.70;99.90;;;;;;4970500;28;20228;-53
2022/06/03 02:38:19;;;;;;;3.40;3.10;;;16.80;99.90;;;;;;4970819;28;20186;-52
2022/06/03 02:41:12;;;;;;;5.30;3.10;;;16.80;99.90;;;;;;4960583;28;20201;-56
2022/06/03 02:44:08;;;;;;;4.20;3.00;;;16.80;99.90;;;;;;4971985;28;20175;-51
2022/06/03 02:46:58;;;;;;;3.43;3.00;;;16.70;99.90;;;;;;4974328;28;20166;-52
2022/06/03 02:50:00;;;;;;;5.53;2.97;;;16.60;99.90;;;;;;4973897;28;20657;-51
2022/06/03 02:52:39;;;;;;;3.47;3.17;;;16.20;99.90;;;;;;4974005;28;20177;-52
2022/06/03 02:55:07;;;;;;;3.97;3.00;;;16.10;99.90;;;;;;4973525;28;20334;-54
2022/06/03 02:57:44;;;;;;;3.17;2.97;;;16.60;99.90;;;;;;4973899;28;20182;-55
2022/06/03 03:00:35;;;;;;;3.73;3.03;;;16.20;99.90;;;;;;4980371;28;20193;-53
2022/06/03 03:03:13;;;;;;;3.50;3.13;;;16.50;99.90;;;;;;5034898;28;20180;-55
2022/06/03 03:05:53;;;;;;;3.53;2.90;;;16.40;99.90;;;;;;5033582;28;20200;-51
2022/06/03 03:08:56;;;;;;;3.40;3.20;;;16.30;99.90;;;;;;5033474;28;20244;-52
2022/06/03 03:11:43;;;;;;;3.40;2.97;;;16.40;99.90;;;;;;5034344;28;20300;-52
2022/06/03 03:14:20;;;;;;;3.57;3.10;;;15.80;99.90;;;;;;5017835;28;20569;-51
2022/06/03 03:17:01;;;;;;;5.17;2.90;;;16.40;99.90;;;;;;5014549;28;20172;-55
2022/06/03 03:20:08;;;;;;;3.20;2.90;;;16.50;99.90;;;;;;5014067;28;20276;-52
2022/06/03 03:22:48;;;;;;;5.60;3.00;;;16.40;99.90;;;;;;5013967;28;20236;-51
2022/06/03 03:25:35;;;;;;;3.40;2.80;;;16.40;99.90;;;;;;5014037;28;20556;-51
2022/06/03 03:28:28;;;;;;;2.90;2.70;;;16.30;99.90;;;;;;5013907;28;20552;-53
2022/06/03 03:31:06;;;;;;;3.43;3.13;;;16.30;99.90;;;;;;5014269;28;20190;-53
2022/06/03 03:33:40;;;;;;;3.23;2.93;;;16.30;99.90;;;;;;5013410;28;20484;-51
2022/06/03 03:36:18;;;;;;;2.60;2.40;;;16.30;99.90;;;;;;5013831;28;20242;-52
2022/06/03 03:39:04;;;;;;;2.87;2.67;;;16.40;99.90;;;;;;5014117;28;20169;-55
2022/06/03 03:41:55;;;;;;;2.90;2.67;;;16.40;99.90;;;;;;5013988;28;20189;-52
2022/06/03 03:44:39;;;;;;;3.13;2.93;;;16.40;99.90;;;;;;5014012;28;20204;-50
2022/06/03 03:47:38;;;;;;;2.70;2.50;;;16.40;99.90;;;;;;5014021;28;20579;-52
2022/06/03 03:50:10;;;;;;;2.80;2.60;;;16.40;99.90;;;;;;5014030;28;20183;-53
2022/06/03 03:52:50;;;;;;;3.10;2.87;;;16.40;99.90;;;;;;5013566;28;20173;-51
2022/06/03 03:55:38;;;;;;;2.90;2.70;;;16.40;99.90;;;;;;5012591;28;20267;-52
2022/06/03 03:58:31;;;;;;;3.07;2.57;;;16.50;99.90;;;;;;5013628;28;20239;-51
2022/06/03 04:00:59;;;;;;;3.10;2.80;;;16.50;99.90;;;;;;5013651;28;20279;-50
2022/06/03 04:03:49;;;;;;;2.73;2.50;;;16.50;99.90;;;;;;5013498;28;20172;-53
2022/06/03 04:06:43;;;;;;;2.70;2.50;;;16.50;99.90;;;;;;4978346;28;1047548;-51
2022/06/03 04:09:39;;;;;;;3.13;2.60;;;16.60;99.90;;;;;;4977278;28;20564;-53
2022/06/03 04:12:14;;;;;;;2.93;2.63;;;16.60;99.90;;;;;;5014854;28;20566;-50
2022/06/03 04:15:09;;;;;;;3.60;3.30;;;16.60;99.90;;;;;;5014642;28;20203;-54
2022/06/03 04:17:59;;;;;;;2.90;2.70;;;16.70;99.90;;;;;;4934298;29;20199;-51
2022/06/03 04:21:00;;;;;;;4.80;3.10;;;16.70;99.90;;;;;;4934754;29;20203;-53
2022/06/03 04:24:00;;;;;;;3.40;3.03;;;16.80;99.90;;;;;;4953066;29;20637;-53
2022/06/03 04:26:44;;;;;;;2.80;2.60;;;16.80;99.90;;;;;;4953741;29;20560;-50
2022/06/03 04:29:37;;;;;;;3.13;2.70;;;16.90;99.90;;;;;;4953439;29;20187;-53
2022/06/03 04:32:48;;;;;;;2.77;2.57;;;16.90;99.90;;;;;;4953345;29;20278;-51
2022/06/03 04:35:50;;;;;;;3.70;2.90;;;16.90;99.90;;;;;;4953140;29;20210;-50
2022/06/03 04:38:28;;;;;;;4.93;2.80;;;17.00;99.90;;;;;;4953215;29;20263;-50
2022/06/03 04:41:22;;;;;;;3.00;2.70;;;17.10;99.90;;;;;;4953655;29;20276;-54
2022/06/03 04:44:05;;;;;;;3.23;2.50;;;17.20;99.90;;;;;;4953007;29;20214;-52
2022/06/03 04:46:55;;;;;;;3.23;2.80;;;17.20;99.90;;;;;;4953110;29;20573;-50
2022/06/03 04:49:23;;;;;;;2.60;2.40;;;17.40;99.90;;;;;;4953492;29;20233;-51
2022/06/03 04:52:07;;;;;;;3.20;3.00;;;17.50;99.90;;;;;;4952892;29;20183;-52
2022/06/03 04:54:45;;;;;;;3.00;2.80;;;17.50;99.90;;;;;;4982156;28;20221;-54
2022/06/03 04:57:16;;;;;;;2.77;2.57;;;17.60;99.90;;;;;;4976286;28;20184;-55
2022/06/03 05:00:16;;;;;;;2.90;2.70;;;17.70;99.90;;;;;;4993596;28;20289;-51
2022/06/03 05:02:44;;;;;;;4.53;2.80;;;17.80;99.90;;;;;;4993821;28;20535;-51
2022/06/03 05:05:41;;;;;;;2.73;2.50;;;17.80;99.90;;;;;;4993462;28;20475;-52
2022/06/03 05:08:24;;;;;;;2.47;2.30;;;17.90;99.90;;;;;;4993435;28;20171;-50
2022/06/03 05:11:26;;;;;;;3.00;2.80;;;18.00;99.90;;;;;;4993498;28;20167;-55
2022/06/03 05:14:04;;;;;;;3.20;2.97;;;18.00;99.90;;;;;;4993140;28;20164;-53
2022/06/03 05:16:35;;;;;;;2.83;2.63;;;18.00;99.90;;;;;;4993291;28;20177;-55
2022/06/03 05:19:01;;;;;;;2.90;2.70;;;18.00;99.90;;;;;;4993309;28;20191;-52
2022/06/03 05:21:57;;;;;;;2.77;2.50;;;18.10;99.90;;;;;;4993428;28;20710;-54
2022/06/03 05:24:43;;;;;;;2.90;2.70;;;18.20;99.90;;;;;;4992977;28;20200;-53
2022/06/03 05:27:30;;;;;;;5.13;3.10;;;18.30;99.90;;;;;;4993280;28;20165;-53
2022/06/03 05:30:32;;;;;;;2.57;2.47;;;18.40;99.90;;;;;;4993081;28;20176;-52
2022/06/03 05:33:09;;;;;;;2.97;2.77;;;18.50;99.90;;;;;;4993201;28;20160;-54
2022/06/03 05:35:50;;;;;;;3.13;2.70;;;18.60;99.90;;;;;;4993693;28;20197;-52
2022/06/03 05:38:43;;;;;;;3.23;2.93;;;18.70;99.90;;;;;;5003884;28;20173;-55
2022/06/03 05:44:22;;;;;;;3.03;2.73;;;19.20;99.90;;;;;;4992773;28;20176;-51
2022/06/03 05:46:51;;;;;;;3.30;3.00;;;19.10;99.90;;;;;;4992796;28;20176;-57
2022/06/03 05:49:41;;;;;;;3.67;3.20;;;19.20;99.90;;;;;;4996839;28;20181;-56
2022/06/03 05:52:25;;;;;;;3.50;3.20;;;19.20;99.90;;;;;;4993098;28;20636;-51
2022/06/03 05:55:07;;;;;;;5.43;3.80;;;19.20;99.90;;;;;;4992320;28;20205;-53
2022/06/03 05:57:42;;;;;;;3.70;3.40;;;19.30;99.90;;;;;;4993440;28;20184;-52
2022/06/03 06:00:32;;;;;;;3.87;3.57;;;18.70;99.90;;;;;;5011526;28;20203;-52
2022/06/03 06:03:20;;;;;;;3.60;3.30;;;19.70;99.90;;;;;;5011402;28;20203;-53
2022/06/03 06:06:03;;;;;;;3.27;2.97;;;19.90;99.90;;;;;;5010717;28;20239;-50
2022/06/03 06:08:54;;;;;;;3.03;2.80;;;20.00;99.90;;;;;;5013036;28;20167;-53
2022/06/03 06:11:45;;;;;;;3.40;2.90;;;20.00;99.90;;;;;;5003018;28;20181;-51
2022/06/03 06:14:17;;;;;;;3.47;2.90;;;19.90;99.90;;;;;;4992545;28;20177;-51
2022/06/03 06:16:44;;;;;;;3.20;2.67;;;20.00;99.90;;;;;;4993096;28;20176;-51
2022/06/03 06:19:29;;;;;;;3.30;3.07;;;20.00;99.90;;;;;;4995863;28;20674;-51
2022/06/03 06:22:22;;;;;;;4.23;2.80;;;20.10;99.90;;;;;;5004877;28;20187;-52
2022/06/03 06:24:55;;;;;;;3.30;3.00;;;20.10;99.90;;;;;;5012587;28;20212;-51
2022/06/03 06:27:57;;;;;;;3.00;2.70;;;20.10;99.90;;;;;;4999146;28;20166;-51
2022/06/03 06:30:56;;;;;;;4.37;3.00;;;20.20;99.90;;;;;;4999781;28;20180;-51
2022/06/03 06:33:49;;;;;;;3.50;3.20;;;20.30;99.90;;;;;;5006561;28;20185;-52
2022/06/03 06:37:01;;;;;;;4.30;3.10;;;20.30;99.90;;;;;;5014551;28;20201;-52
2022/06/03 06:39:36;;;;;;;3.53;3.00;;;20.50;99.90;;;;;;4950937;29;20225;-52
2022/06/03 06:42:16;;;;;;;3.30;3.00;;;20.50;99.90;;;;;;4954822;29;20194;-52
2022/06/03 06:45:21;;;;;;;3.53;3.23;;;20.50;99.90;;;;;;4955255;29;20219;-53
2022/06/03 06:48:24;;;;;;;3.27;2.97;;;20.60;99.90;;;;;;4935894;29;20191;-52
2022/06/03 06:51:24;;;;;;;2.92;2.72;;;20.90;99.90;;;;;;4955521;29;20190;-54
2022/06/03 06:54:05;;;;;;;2.93;2.63;;;21.10;99.90;;;;;;4897528;29;20196;-53
2022/06/03 06:56:41;;;;;;;2.80;2.60;;;21.30;99.90;;;;;;4897988;29;20422;-51
2022/06/03 06:59:15;;;;;;;3.45;3.15;;;21.20;99.90;;;;;;4897710;29;20276;-51
2022/06/03 07:01:48;;;;;;;5.60;2.80;;;21.20;99.90;;;;;;4897761;29;20258;-51
2022/06/03 07:04:23;;;;;;;2.90;2.70;;;21.50;99.90;;;;;;4897581;29;20193;-51
2022/06/03 07:07:14;;;;;;;3.53;2.58;;;21.50;99.90;;;;;;4897730;29;20230;-54
2022/06/03 07:10:05;;;;;;;2.90;2.58;;;21.70;99.90;;;;;;4890030;29;20216;-51
2022/06/03 07:12:54;;;;;;;2.90;2.70;;;21.80;99.90;;;;;;4893461;29;20203;-57
2022/06/03 07:15:49;;;;;;;3.10;2.58;;;21.90;99.90;;;;;;4834196;29;20329;-52
2022/06/03 07:21:57;;;;;;;2.92;2.60;;;22.00;99.90;;;;;;4859741;29;20216;-54
2022/06/03 07:24:55;;;;;;;4.53;3.03;;;22.10;99.90;;;;;;4859374;29;20219;-52
2022/06/03 07:27:42;;;;;;;2.97;2.78;;;22.30;99.90;;;;;;4865245;29;20200;-52
2022/06/03 07:30:11;;;;;;;2.78;2.58;;;22.50;99.90;;;;;;4885029;29;20530;-56
2022/06/03 07:33:09;;;;;;;2.97;2.78;;;22.60;99.90;;;;;;4915278;29;20561;-56
2022/06/03 07:35:54;;;;;;;2.90;2.70;;;22.70;99.90;;;;;;4918693;29;20207;-57
2022/06/03 07:38:23;;;;;;;2.83;2.63;;;23.00;99.90;;;;;;4918193;29;20212;-53
2022/06/03 07:41:01;;;;;;;3.92;2.80;;;22.90;99.90;;;;;;4913216;29;20204;-57
2022/06/03 07:43:45;;;;;;;4.30;2.83;;;22.90;99.90;;;;;;4922121;29;20187;-57
2022/06/03 07:46:25;;;;;;;2.80;2.60;;;22.90;99.90;;;;;;4925141;29;20215;-55
2022/06/03 07:48:51;;;;;;;2.70;2.50;;;22.80;99.90;;;;;;4908339;29;20215;-54
2022/06/03 07:51:31;;;;;;;2.50;2.40;;;22.80;99.90;;;;;;4924789;28;20191;-53
2022/06/03 07:54:12;;;;;;;2.88;2.65;;;22.80;99.90;;;;;;5021448;28;20183;-56
2022/06/03 07:56:38;;;;;;;2.42;2.22;;;23.00;99.90;;;;;;5024293;28;20187;-57
2022/06/03 07:59:09;;;;;;;2.58;2.38;;;23.10;99.90;;;;;;5025002;28;20168;-58
2022/06/03 08:01:38;;;;;;;2.85;2.35;;;23.20;99.90;;;;;;5033400;28;20585;-58
2022/06/03 08:04:07;;;;;;;2.83;2.60;;;23.30;99.90;;;;;;5024825;28;20222;-57
2022/06/03 08:11:59;;;;;;;2.67;2.47;;;23.20;99.90;;;;;;5027855;28;20238;-60
2022/06/03 08:14:26;;;;;;;3.20;2.50;;;23.40;99.90;;;;;;5032416;28;20263;-59
2022/06/03 08:16:53;;;;;;;2.75;2.35;;;23.60;99.90;;;;;;5032170;28;20196;-59
2022/06/03 08:19:25;;;;;;;2.30;2.15;;;23.70;99.90;;;;;;5016269;28;20608;-60
2022/06/03 08:21:57;;;;;;;2.13;1.92;;;23.80;99.90;;;;;;5032812;28;20765;-55
2022/06/03 08:24:27;;;;;;;2.53;2.30;;;23.60;99.90;;;;;;5032079;28;20188;-54
2022/06/03 08:26:57;;;;;;;2.25;2.05;;;23.60;99.90;;;;;;5032809;28;20279;-58
2022/06/03 08:29:41;;;;;;;2.35;2.17;;;23.70;99.90;;;;;;5032863;28;20175;-55
2022/06/03 08:32:15;;;;;;;2.10;2.00;;;23.90;99.90;;;;;;5032931;28;20163;-57
2022/06/03 08:34:47;;;;;;;1.98;1.83;;;24.10;99.90;;;;;;5032491;28;20157;-55
2022/06/03 08:37:22;;;;;;;1.80;1.70;;;24.20;99.90;;;;;;5032480;28;20264;-57
2022/06/03 08:39:52;;;;;;;2.35;2.15;;;24.30;99.90;;;;;;5032230;28;20282;-59
2022/06/03 08:42:17;;;;;;;2.00;1.90;;;24.60;99.90;;;;;;5031569;28;20188;-58
2022/06/03 08:44:46;;;;;;;1.80;1.70;;;24.80;99.90;;;;;;5032278;28;20172;-57
2022/06/03 08:47:18;;;;;;;2.00;1.90;;;25.20;99.90;;;;;;5032158;28;20191;-59
2022/06/03 08:50:05;;;;;;;2.03;1.92;;;25.50;99.90;;;;;;5014072;28;20649;-59
2022/06/03 08:52:49;;;;;;;2.00;1.80;;;25.80;99.90;;;;;;5032253;28;20239;-56
2022/06/03 08:55:34;;;;;;;1.83;1.73;;;26.10;99.90;;;;;;5032199;28;20156;-55
2022/06/03 08:58:10;;;;;;;2.00;1.90;;;26.20;99.90;;;;;;5028679;28;20246;-54
2022/06/03 09:00:50;;;;;;;2.17;2.08;;;26.30;99.90;;;;;;5031219;28;20215;-54
2022/06/03 09:03:20;;;;;;;2.15;1.58;;;26.30;99.90;;;;;;5031406;28;20233;-53
2022/06/03 09:06:10;;;;;;;3.35;2.00;;;26.30;99.90;;;;;;5031180;28;20181;-55
2022/06/03 09:08:49;;;;;;;1.88;1.77;;;26.30;99.90;;;;;;5030479;28;20279;-55
2022/06/03 09:11:29;;;;;;;2.00;1.90;;;26.10;99.90;;;;;;5031992;28;20164;-57
2022/06/03 09:14:05;;;;;;;2.10;1.85;;;25.80;99.90;;;;;;5031775;28;20171;-54
2022/06/03 09:16:33;;;;;;;1.90;1.80;;;25.80;99.90;;;;;;5023852;28;20170;-52
2022/06/03 09:19:07;;;;;;;2.20;2.10;;;25.90;99.90;;;;;;5031709;28;20180;-57
2022/06/03 09:21:41;;;;;;;1.95;1.85;;;25.70;99.90;;;;;;5031899;28;20180;-56
2022/06/03 09:24:13;;;;;;;2.55;2.35;;;25.70;99.90;;;;;;5031613;28;20210;-56
2022/06/03 09:26:46;;;;;;;2.15;2.03;;;25.70;99.90;;;;;;5031753;28;20170;-56
2022/06/03 09:29:13;;;;;;;2.08;1.98;;;25.60;99.90;;;;;;5031714;28;20211;-54
2022/06/03 09:31:44;;;;;;;2.08;1.98;;;25.50;99.90;;;;;;5031163;28;20589;-53
2022/06/03 09:34:12;;;;;;;1.90;1.80;;;25.50;99.90;;;;;;5031077;28;20262;-57
2022/06/03 09:36:37;;;;;;;2.83;1.88;;;25.80;99.90;;;;;;5031574;28;20757;-54
2022/06/03 09:39:15;;;;;;;2.03;1.83;;;25.80;99.90;;;;;;5031692;28;20172;-58
2022/06/03 09:41:45;;;;;;;2.25;1.83;;;25.70;99.90;;;;;;5031664;28;20206;-55
2022/06/03 09:44:13;;;;;;;2.28;2.10;;;25.70;99.90;;;;;;5031370;28;20786;-53
2022/06/03 09:46:40;;;;;;;3.17;2.00;;;25.80;99.90;;;;;;5031412;28;20261;-57
2022/06/03 09:49:08;;;;;;;2.25;2.05;;;25.80;99.90;;;;;;5031494;28;20168;-56
2022/06/03 09:52:00;;;;;;;1.83;1.73;;;26.00;99.90;;;;;;5031603;28;20240;-53
2022/06/03 09:54:40;;;;;;;3.95;1.95;;;26.20;99.90;;;;;;5030851;28;20176;-55
2022/06/03 09:57:21;;;;;;;2.58;2.00;;;26.30;99.90;;;;;;5031226;28;20195;-58
2022/06/03 10:00:15;;;;;;;2.00;1.90;;;26.40;99.90;;;;;;5031353;28;20262;-54
2022/06/03 10:02:44;;;;;;;1.80;1.70;;;26.50;99.90;;;;;;5009060;28;20267;-57
2022/06/03 10:05:15;;;;;;;2.05;1.77;;;26.60;99.90;;;;;;5008882;28;20574;-56
2022/06/03 10:07:41;;;;;;;1.75;1.65;;;26.70;99.90;;;;;;4982400;28;20224;-55
2022/06/03 10:12:59;;;;;;;2.25;1.85;;;27.20;99.90;;;;;;4989927;28;20252;-56
2022/06/03 10:15:38;;;;;;;1.85;1.70;;;27.30;99.90;;;;;;4989282;28;20178;-54
2022/06/03 10:18:15;;;;;;;2.00;1.90;;;27.20;99.90;;;;;;4989398;28;20733;-57
2022/06/03 10:20:43;;;;;;;1.83;1.73;;;27.30;99.90;;;;;;4989436;28;20286;-53
2022/06/03 10:23:09;;;;;;;1.80;1.70;;;27.50;99.90;;;;;;4989528;28;20259;-55
2022/06/03 10:25:41;;;;;;;2.00;1.83;;;27.40;99.90;;;;;;4989297;28;20272;-56
2022/06/03 10:28:10;;;;;;;2.05;1.73;;;27.50;99.90;;;;;;4989387;28;20197;-56
2022/06/03 10:30:39;;;;;;;3.03;2.15;;;27.50;99.90;;;;;;4989413;28;20184;-57
2022/06/03 10:33:06;;;;;;;2.58;1.95;;;27.50;99.90;;;;;;4989457;28;20622;-56
2022/06/03 10:35:38;;;;;;;1.90;1.80;;;27.80;99.90;;;;;;4989276;28;20543;-54
2022/06/03 10:38:04;;;;;;;2.60;1.90;;;27.90;99.90;;;;;;4989385;28;20285;-56
2022/06/03 10:40:32;;;;;;;2.13;1.73;;;27.70;99.70;;;;;;5024152;28;20210;-58
2022/06/03 10:43:00;;;;;;;2.22;2.03;;;27.90;99.90;;;;;;5030955;28;20649;-54
2022/06/03 10:45:32;;;;;;;2.00;1.90;;;28.10;99.90;;;;;;5030702;28;20663;-56
2022/06/03 10:47:58;;;;;;;2.08;1.92;;;28.20;99.90;;;;;;5030972;28;20337;-58
2022/06/03 10:50:25;;;;;;;2.28;2.08;;;28.30;99.90;;;;;;5030777;28;20176;-56
2022/06/03 11:01:32;;;;;;;2.10;2.00;;;28.60;99.10;;;;;;5030723;28;20203;-56
2022/06/03 11:03:58;;;;;;;1.98;1.88;;;28.40;99.40;;;;;;5031314;28;20226;-57
2022/06/03 11:06:27;;;;;;;2.10;2.00;;;28.40;99.30;;;;;;5034468;28;20168;-57
2022/06/03 11:08:59;;;;;;;4.95;2.45;;;28.40;99.20;;;;;;5034340;28;20199;-58
2022/06/03 11:11:46;;;;;;;2.47;1.90;;;28.60;99.50;;;;;;5034479;28;20249;-59
2022/06/03 11:14:28;;;;;;;2.00;1.80;;;28.90;99.20;;;;;;5033384;28;20271;-57
2022/06/03 11:16:58;;;;;;;2.17;2.00;;;28.90;97.90;;;;;;5033943;28;20211;-58
2022/06/03 11:19:23;;;;;;;2.00;1.90;;;28.80;98.30;;;;;;5034081;28;20168;-58
2022/06/03 11:22:14;;;;;;;3.08;2.10;;;28.90;98.30;;;;;;5034128;28;20206;-57
2022/06/03 11:24:40;;;;;;;2.25;2.05;;;28.90;98.00;;;;;;5034019;28;20633;-58
2022/06/03 11:27:10;;;;;;;2.40;2.20;;;28.90;98.00;;;;;;5034026;28;20279;-58
2022/06/03 11:29:39;;;;;;;2.58;2.00;;;28.90;98.00;;;;;;5033760;28;20183;-58
2022/06/03 11:32:11;;;;;;;2.00;1.80;;;29.00;97.30;;;;;;5034057;28;20210;-58
2022/06/03 11:34:57;;;;;;;2.08;1.98;;;29.10;98.20;;;;;;5032341;28;20585;-59
2022/06/03 11:37:35;;;;;;;2.13;1.88;;;29.20;97.40;;;;;;5032711;28;20204;-57
2022/06/03 11:40:12;;;;;;;1.75;1.65;;;29.30;98.00;;;;;;5033762;28;20230;-59
2022/06/03 11:43:04;;;;;;;2.00;1.80;;;29.20;97.80;;;;;;5033911;28;20254;-57
2022/06/03 11:46:12;;;;;;;3.15;2.10;;;29.40;97.30;;;;;;5033444;28;20630;-58
2022/06/03 11:48:43;;;;;;;1.73;1.63;;;29.40;97.30;;;;;;4972491;28;20210;-57
2022/06/03 11:51:11;;;;;;;2.10;1.90;;;29.40;97.00;;;;;;4972561;28;20174;-56
2022/06/03 11:53:47;;;;;;;2.28;1.90;;;29.50;97.20;;;;;;4972174;28;20728;-56
2022/06/03 11:56:15;;;;;;;2.75;1.85;;;29.40;96.50;;;;;;4972517;28;20710;-55
2022/06/03 11:59:04;;;;;;;1.92;1.80;;;29.30;96.80;;;;;;4972195;28;20356;-53
2022/06/03 12:01:49;;;;;;;1.88;1.77;;;29.50;96.20;;;;;;4972493;28;20707;-55
2022/06/03 12:04:36;;;;;;;1.83;1.70;;;29.60;96.50;;;;;;4933441;29;20187;-57
2022/06/03 12:07:30;;;;;;;2.10;1.85;;;29.80;95.60;;;;;;4933534;29;20222;-56
2022/06/03 12:10:07;;;;;;;1.80;1.70;;;30.00;94.40;;;;;;4933619;29;20187;-57
2022/06/03 12:15:33;;;;;;;1.60;1.50;;;30.40;95.30;;;;;;4932665;29;20239;-58
2022/06/03 12:18:11;;;;;;;3.38;1.77;;;30.90;95.50;;;;;;4933585;29;20237;-57
2022/06/03 12:20:52;;;;;;;4.30;1.70;;;31.20;93.90;;;;;;4952753;29;20202;-55
2022/06/03 12:23:18;;;;;;;2.75;2.00;;;31.40;94.10;;;;;;4952663;29;20163;-57
2022/06/03 12:26:03;;;;;;;1.83;1.70;;;31.40;93.80;;;;;;4952396;29;20274;-56
2022/06/03 12:28:38;;;;;;;1.88;1.70;;;31.10;93.90;;;;;;4952328;29;20486;-57
2022/06/03 12:31:06;;;;;;;2.53;1.67;;;30.90;93.70;;;;;;4952628;29;20285;-56
2022/06/03 12:33:45;;;;;;;1.77;1.65;;;30.80;93.30;;;;;;4952276;29;20250;-54
2022/06/03 12:36:39;;;;;;;1.70;1.60;;;30.70;94.10;;;;;;4952560;29;20185;-58
2022/06/03 12:39:05;;;;;;;1.85;1.75;;;30.90;94.60;;;;;;4952360;29;20525;-57
2022/06/03 12:41:46;;;;;;;1.90;1.77;;;31.10;94.10;;;;;;4997444;28;20203;-55
2022/06/03 12:44:33;;;;;;;1.50;1.40;;;31.40;94.00;;;;;;5032289;28;20164;-57
2022/06/03 12:47:41;;;;;;;2.38;1.60;;;31.20;92.10;;;;;;5032447;28;20195;-56
2022/06/03 12:50:06;;;;;;;2.90;1.90;;;31.10;92.00;;;;;;5032234;28;20828;-56
2022/06/03 12:52:33;;;;;;;1.60;1.50;;;31.00;94.10;;;;;;5032360;28;20176;-56
2022/06/03 12:55:02;;;;;;;1.85;1.75;;;30.90;93.50;;;;;;5031955;28;20168;-58
2022/06/03 12:57:43;;;;;;;2.42;1.73;;;30.90;93.40;;;;;;5031963;28;20310;-57
2022/06/03 13:00:18;;;;;;;1.98;1.88;;;31.00;93.30;;;;;;5032120;28;20190;-57
2022/06/03 13:03:26;;;;;;;1.63;1.52;;;30.90;93.70;;;;;;5032307;28;20171;-58
2022/06/03 13:05:54;;;;;;;1.70;1.60;;;31.00;94.00;;;;;;5031769;28;20178;-58
2022/06/03 13:08:28;;;;;;;2.97;1.80;;;31.20;92.40;;;;;;5031984;28;20227;-58
2022/06/03 13:11:06;;;;;;;1.60;1.50;;;31.20;92.00;;;;;;5032186;28;20202;-59
2022/06/03 13:13:34;;;;;;;3.08;1.40;;;31.10;91.90;;;;;;5031935;28;20254;-58
2022/06/03 13:16:19;;;;;;;1.60;1.50;;;31.10;91.90;;;;;;5032060;28;20189;-59
2022/06/03 13:18:52;;;;;;;2.08;1.88;;;31.10;93.20;;;;;;5032073;28;20196;-57
2022/06/03 13:21:24;;;;;;;4.32;1.45;;;31.20;92.00;;;;;;5031898;28;20187;-55
2022/06/03 13:23:49;;;;;;;1.58;1.48;;;31.10;91.20;;;;;;5032001;28;20530;-58
2022/06/03 13:26:21;;;;;;;2.75;1.40;;;31.10;92.20;;;;;;5031755;28;20178;-58
2022/06/03 13:28:59;;;;;;;1.98;1.58;;;31.00;91.70;;;;;;5031720;28;20229;-58
2022/06/03 13:31:40;;;;;;;3.13;1.65;;;30.90;91.70;;;;;;5031185;28;20199;-58
2022/06/03 13:34:09;;;;;;;2.20;1.65;;;30.90;92.20;;;;;;5031286;28;20233;-57
2022/06/03 13:36:44;;;;;;;1.75;1.65;;;30.80;91.50;;;;;;5031821;28;20199;-56
2022/06/03 13:39:32;;;;;;;2.22;1.60;;;30.90;91.90;;;;;;5031713;28;20175;-58
2022/06/03 13:45:03;;;;;;;1.27;1.25;;;31.40;91.60;;;;;;5009591;28;20653;-58
2022/06/03 13:47:31;;;;;;;1.80;1.55;;;31.90;92.20;;;;;;5009566;28;20662;-58
2022/06/03 13:50:12;;;;;;;2.28;1.50;;;32.10;91.10;;;;;;5009428;28;20231;-57
2022/06/03 13:52:48;;;;;;;1.65;1.42;;;32.10;89.20;;;;;;5009504;28;20192;-56
2022/06/03 13:55:38;;;;;;;1.17;1.10;;;32.00;89.40;;;;;;5009108;28;20164;-58
2022/06/03 13:58:41;;;;;;;3.03;1.58;;;32.00;89.60;;;;;;5009397;28;20198;-59
2022/06/03 14:01:17;;;;;;;1.40;1.30;;;32.10;88.80;;;;;;5009474;28;20204;-59
2022/06/03 14:03:56;;;;;;;1.65;1.33;;;32.10;87.10;;;;;;5009111;28;20338;-58
2022/06/03 14:06:32;;;;;;;1.38;1.27;;;32.10;88.40;;;;;;5009451;28;20180;-58
2022/06/03 14:09:19;;;;;;;1.52;1.27;;;32.00;87.90;;;;;;5010811;28;20274;-58
2022/06/03 14:12:09;;;;;;;1.80;1.50;;;31.80;87.70;;;;;;5009854;28;20184;-57
2022/06/03 14:14:44;;;;;;;1.20;1.10;;;31.80;89.70;;;;;;5009074;28;20177;-59
2022/06/03 14:17:27;;;;;;;2.58;1.27;;;31.90;86.40;;;;;;5009283;28;20200;-57
2022/06/03 14:19:59;;;;;;;2.13;1.10;;;31.90;87.30;;;;;;5027315;28;20207;-58
2022/06/03 14:22:33;;;;;;;1.88;1.42;;;31.80;85.00;;;;;;5031256;28;20169;-57
2022/06/03 14:25:17;;;;;;;1.85;1.10;;;31.80;85.60;;;;;;5030856;28;20163;-58
2022/06/03 14:27:55;;;;;;;2.05;1.40;;;31.60;86.80;;;;;;5031345;28;20211;-56